Time;durP1;ratioP1;P1;durP2;ratioP2;P2;SDS_P1;SDS_P2;PMS_P1;PMS_P2;Temp;Humidity;BMP_temperature;BMP_pressure;BME280_temperature;BME280_humidity;BME280_pressure;Samples;Min_cycle;Max_cycle;Signal;HPM_P1;HPM_P2
2022/12/12 00:02:07;;;;;;;14.45;11.77;;;;;;;4.10;82.98;100356.75;4945168;28;20526;-79
2022/12/12 00:04:35;;;;;;;13.07;11.20;;;;;;;4.18;83.07;100358.91;4949711;28;20180;-80
2022/12/12 00:07:06;;;;;;;13.35;11.65;;;;;;;4.34;81.71;100340.31;4946992;28;20149;-80
2022/12/12 00:09:36;;;;;;;16.85;12.63;;;;;;;4.47;81.26;100363.06;4926550;28;20051;-80
2022/12/12 00:12:03;;;;;;;16.27;11.88;;;;;;;4.31;80.96;100338.75;4928078;28;20743;-80
2022/12/12 00:14:34;;;;;;;14.55;12.43;;;;;;;4.06;81.62;100321.97;4931149;28;20058;-78
2022/12/12 00:17:00;;;;;;;14.85;13.00;;;;;;;4.15;82.19;100345.94;4923649;28;20366;-81
2022/12/12 00:19:28;;;;;;;15.23;12.57;;;;;;;4.17;81.86;100367.72;4925069;28;20850;-81
2022/12/12 00:21:55;;;;;;;16.83;12.35;;;;;;;3.91;81.84;100330.00;4926615;28;20153;-81
2022/12/12 00:24:22;;;;;;;13.55;12.05;;;;;;;4.12;81.59;100373.28;4933541;28;20086;-81
2022/12/12 00:26:50;;;;;;;15.15;12.43;;;;;;;3.82;81.71;100315.72;4930646;28;20055;-80
2022/12/12 00:29:18;;;;;;;15.43;12.60;;;;;;;4.25;81.18;100373.31;4941248;28;20055;-80
2022/12/12 00:31:44;;;;;;;15.95;11.98;;;;;;;4.27;81.15;100366.16;4945940;28;20591;-80
2022/12/12 00:34:17;;;;;;;12.65;11.02;;;;;;;4.26;80.67;100375.84;4950492;28;20057;-81
2022/12/12 00:36:44;;;;;;;15.18;12.25;;;;;;;3.99;81.44;100338.25;4949273;28;20058;-79
2022/12/12 00:39:11;;;;;;;15.77;10.95;;;;;;;3.44;81.30;100229.78;4952464;28;20065;-81
2022/12/12 00:41:44;;;;;;;15.68;12.13;;;;;;;4.18;81.85;100351.84;4949423;28;20062;-80
2022/12/12 00:44:15;;;;;;;13.52;11.82;;;;;;;4.04;81.51;100329.13;4944963;28;20058;-80
2022/12/12 00:46:44;;;;;;;16.05;11.68;;;;;;;3.81;81.27;100300.88;4949349;28;20779;-81
2022/12/12 00:49:16;;;;;;;15.60;12.13;;;;;;;3.72;81.59;100314.63;4948054;28;20061;-81
2022/12/12 00:51:44;;;;;;;14.75;11.75;;;;;;;3.84;81.36;100345.34;4949062;28;20082;-81
2022/12/12 00:54:11;;;;;;;14.18;12.52;;;;;;;3.43;81.16;100296.34;4946142;28;20594;-81
2022/12/12 00:56:39;;;;;;;18.10;12.98;;;;;;;3.82;81.45;100366.44;4945486;28;20290;-81
2022/12/12 00:59:08;;;;;;;17.02;11.90;;;;;;;3.79;81.46;100382.41;4945099;28;20554;-80
2022/12/12 01:01:35;;;;;;;16.42;12.85;;;;;;;3.75;81.67;100369.56;4948379;28;20173;-80
2022/12/12 01:04:03;;;;;;;16.08;12.07;;;;;;;3.79;81.45;100381.56;4949031;28;20128;-80
2022/12/12 01:06:30;;;;;;;15.32;12.10;;;;;;;3.72;82.13;100369.78;4945766;28;20944;-80
2022/12/12 01:08:58;;;;;;;13.98;11.40;;;;;;;3.47;82.62;100324.09;4948056;28;20053;-79
2022/12/12 01:11:26;;;;;;;13.65;11.95;;;;;;;3.81;82.06;100379.66;4948292;28;20061;-80
2022/12/12 01:13:55;;;;;;;13.63;11.88;;;;;;;3.72;81.95;100356.66;4950167;28;20050;-80
2022/12/12 01:16:23;;;;;;;15.35;11.95;;;;;;;3.83;81.48;100388.28;4963451;28;20088;-81
2022/12/12 01:18:57;;;;;;;13.18;11.75;;;;;;;3.77;81.72;100396.56;4950650;28;20148;-80
2022/12/12 01:21:30;;;;;;;16.00;10.88;;;;;;;3.51;81.78;100362.31;4969150;28;20115;-80
2022/12/12 01:24:00;;;;;;;14.90;11.65;;;;;;;3.16;81.88;100318.16;4971414;28;20390;-79
2022/12/12 01:26:31;;;;;;;15.48;11.20;;;;;;;3.65;81.79;100403.44;4952239;28;20308;-80
2022/12/12 01:28:58;;;;;;;14.32;11.43;;;;;;;3.38;81.66;100361.41;4950279;28;20580;-80
2022/12/12 01:31:26;;;;;;;16.35;12.68;;;;;;;3.63;82.44;100408.78;4947023;28;20386;-80
2022/12/12 01:33:53;;;;;;;12.25;10.98;;;;;;;3.59;82.39;100406.44;4945801;28;20062;-80
2022/12/12 01:36:38;;;;;;;13.02;11.23;;;;;;;3.32;81.50;100372.28;4947917;28;20106;-80
2022/12/12 01:39:05;;;;;;;;;;;;;;;3.49;81.96;100400.94;4933993;28;20183;-79
2022/12/12 01:41:34;;;;;;;12.77;11.18;;;;;;;3.48;81.56;100411.53;4933397;28;20247;-79
2022/12/12 01:44:03;;;;;;;16.38;12.60;;;;;;;3.52;81.56;100416.50;4931263;28;20161;-80
2022/12/12 01:46:35;;;;;;;16.42;13.20;;;;;;;3.41;81.74;100393.53;4931014;28;20406;-80
2022/12/12 01:49:20;;;;;;;15.02;12.13;;;;;;;3.42;81.38;100404.88;4952137;28;20392;-79
2022/12/12 01:51:51;;;;;;;13.88;11.85;;;;;;;3.39;81.78;100411.16;4932677;28;20054;-79
2022/12/12 01:54:29;;;;;;;15.45;12.45;;;;;;;2.82;81.77;100319.41;4928746;28;20361;-82
2022/12/12 01:56:59;;;;;;;15.15;12.32;;;;;;;3.30;82.23;100401.25;4945350;28;20046;-81
2022/12/12 01:59:32;;;;;;;13.75;10.88;;;;;;;3.27;82.38;100390.09;4946325;28;20058;-80
2022/12/12 02:02:00;;;;;;;15.10;12.05;;;;;;;3.29;82.09;100403.97;4954241;28;20642;-79
2022/12/12 02:04:28;;;;;;;13.18;11.43;;;;;;;3.39;82.02;100415.56;4949647;28;20481;-80
2022/12/12 02:06:55;;;;;;;12.52;10.93;;;;;;;3.26;82.46;100396.28;4968309;28;20423;-79
2022/12/12 02:09:24;;;;;;;15.27;11.55;;;;;;;3.41;82.88;100413.69;4936850;28;20196;-82
2022/12/12 02:11:54;;;;;;;12.85;11.18;;;;;;;3.29;82.38;100382.97;4931823;28;20413;-77
2022/12/12 02:14:29;;;;;;;12.50;9.88;;;;;;;3.38;82.51;100408.66;4934399;28;20263;-81
2022/12/12 02:17:46;;;;;;;12.18;10.77;;;;;;;3.38;82.39;100411.28;4953428;28;20054;-80
2022/12/12 02:20:16;;;;;;;14.75;11.65;;;;;;;3.36;81.69;100405.28;4908327;28;20200;-80
2022/12/12 02:23:01;;;;;;;12.43;11.13;;;;;;;2.94;82.81;100342.25;4926363;28;20419;-80
2022/12/12 02:25:40;;;;;;;14.63;11.95;;;;;;;3.35;82.61;100411.44;4930721;28;20579;-81
2022/12/12 02:28:30;;;;;;;14.68;11.68;;;;;;;3.41;82.68;100418.94;4941710;28;20057;-81
2022/12/12 02:31:30;;;;;;;13.35;11.73;;;;;;;3.43;82.46;100407.41;4949982;28;20061;-81
2022/12/12 02:34:24;;;;;;;13.35;11.43;;;;;;;3.36;83.18;100393.00;4952899;28;20173;-79
2022/12/12 02:37:20;;;;;;;14.02;11.10;;;;;;;3.07;82.78;100341.50;4927378;28;20086;-81
2022/12/12 02:39:58;;;;;;;14.90;11.35;;;;;;;3.52;82.97;100410.38;4974021;28;20046;-80
2022/12/12 02:42:43;;;;;;;15.07;12.50;;;;;;;3.47;82.55;100371.34;4968633;28;20467;-80
2022/12/12 02:45:26;;;;;;;13.27;11.85;;;;;;;3.40;81.80;100354.28;4967671;28;20172;-79
2022/12/12 02:48:03;;;;;;;15.15;12.90;;;;;;;3.72;81.19;100411.78;4969427;28;20502;-81
2022/12/12 02:50:32;;;;;;;15.07;12.25;;;;;;;3.79;80.71;100413.91;4966853;28;20116;-81
2022/12/12 02:53:01;;;;;;;15.65;12.38;;;;;;;3.52;80.03;100379.75;4946068;28;20813;-81
2022/12/12 02:55:28;;;;;;;16.42;12.70;;;;;;;3.56;80.12;100396.97;4966729;28;20699;-79
2022/12/12 02:58:03;;;;;;;19.52;14.18;;;;;;;2.77;81.13;100263.78;4951212;28;20460;-80
2022/12/12 03:01:09;;;;;;;20.92;15.32;;;;;;;3.59;81.52;100407.31;4948969;28;20228;-81
2022/12/12 03:09:59;;;;;;;15.63;12.65;;;;;;;2.60;80.77;100296.28;4952544;28;20762;-80
2022/12/12 03:12:49;;;;;;;16.35;12.77;;;;;;;3.32;80.93;100427.38;4932999;28;20358;-79
2022/12/12 03:15:22;;;;;;;17.15;13.30;;;;;;;3.24;81.43;100412.13;4931126;28;20495;-79
2022/12/12 03:18:08;;;;;;;16.48;12.77;;;;;;;3.24;81.46;100421.78;4949524;28;20169;-80
2022/12/12 03:20:49;;;;;;;17.13;12.98;;;;;;;3.21;81.53;100421.00;4934579;28;20309;-79
2022/12/12 03:23:27;;;;;;;18.40;13.90;;;;;;;2.79;81.56;100358.88;4950693;28;20046;-78
2022/12/12 03:26:03;;;;;;;16.25;13.82;;;;;;;3.04;82.62;100394.13;4949851;28;20530;-79
2022/12/12 03:28:36;;;;;;;18.27;14.13;;;;;;;2.95;82.69;100364.06;4957695;28;20050;-80
2022/12/12 03:31:09;;;;;;;18.98;14.52;;;;;;;3.17;82.29;100395.06;4970694;28;20058;-78
2022/12/12 03:34:01;;;;;;;16.10;13.20;;;;;;;3.36;82.06;100434.13;4952478;28;20259;-79
2022/12/12 03:36:43;;;;;;;18.40;13.13;;;;;;;3.27;82.29;100421.56;4950377;28;20416;-80
2022/12/12 03:39:29;;;;;;;;;;;;;;;3.25;81.87;100428.69;4933662;28;20050;-80
2022/12/12 03:42:04;;;;;;;18.75;14.10;;;;;;;3.24;81.60;100434.88;4949928;28;20062;-79
2022/12/12 03:44:36;;;;;;;19.15;13.95;;;;;;;2.41;82.19;100307.00;4935866;28;20528;-79
2022/12/12 03:47:14;;;;;;;19.65;14.40;;;;;;;3.18;82.66;100433.47;4938030;28;20426;-80
2022/12/12 03:50:03;;;;;;;22.63;16.73;;;;;;;3.12;82.80;100434.69;4933942;28;20570;-78
2022/12/12 03:52:37;;;;;;;17.63;14.38;;;;;;;2.64;82.72;100355.41;4934108;28;20197;-78
2022/12/12 03:55:22;;;;;;;19.70;15.30;;;;;;;3.15;83.16;100436.28;4935701;28;20064;-81
2022/12/12 03:58:00;;;;;;;18.42;14.70;;;;;;;3.15;83.00;100437.13;4949907;28;20061;-78
2022/12/12 04:00:30;;;;;;;16.65;13.15;;;;;;;2.72;83.17;100371.53;4954625;28;20237;-79
2022/12/12 04:03:01;;;;;;;16.05;13.95;;;;;;;3.08;83.18;100432.34;4948466;28;20540;-78
2022/12/12 04:08:33;;;;;;;22.67;14.82;;;;;;;2.86;83.54;100377.72;4958954;28;20138;-81
2022/12/12 04:14:27;;;;;;;17.88;14.55;;;;;;;3.25;82.14;100449.69;4955309;28;20459;-81
2022/12/12 04:16:59;;;;;;;18.67;15.07;;;;;;;3.27;82.47;100445.19;4934789;28;20077;-81
2022/12/12 04:29:16;;;;;;;18.10;14.05;;;;;;;2.77;81.68;100377.34;4935580;28;20141;-80
2022/12/12 04:32:06;;;;;;;19.42;14.50;;;;;;;3.04;82.17;100433.47;4958050;28;20567;-81
2022/12/12 04:34:55;;;;;;;18.83;13.43;;;;;;;3.15;82.70;100459.88;4966623;28;20055;-79
2022/12/12 04:37:29;;;;;;;18.02;13.90;;;;;;;3.13;82.83;100460.00;4961267;28;20437;-82
2022/12/12 04:40:00;;;;;;;18.80;13.82;;;;;;;3.16;82.49;100462.44;4958024;28;20093;-81
2022/12/12 04:42:33;;;;;;;20.45;15.63;;;;;;;3.14;82.54;100455.59;4970272;28;20054;-81
2022/12/12 04:45:08;;;;;;;18.42;14.90;;;;;;;2.69;82.48;100379.56;4965202;28;20113;-80
2022/12/12 04:47:38;;;;;;;17.08;13.10;;;;;;;2.92;82.36;100411.44;4970932;28;20520;-80
2022/12/12 04:50:12;;;;;;;15.73;13.98;;;;;;;3.35;81.91;100461.28;4968840;28;20360;-79
2022/12/12 04:52:41;;;;;;;16.40;12.95;;;;;;;3.18;81.24;100434.31;4954655;28;20164;-81
2022/12/12 04:55:10;;;;;;;18.00;14.18;;;;;;;3.07;81.79;100443.78;4952642;28;20137;-80
2022/12/12 04:57:44;;;;;;;19.73;14.53;;;;;;;3.16;81.92;100474.72;4958988;28;20069;-81
2022/12/12 05:00:13;;;;;;;16.13;12.93;;;;;;;2.56;82.03;100389.09;4949600;28;20727;-81
2022/12/12 05:02:52;;;;;;;17.00;13.48;;;;;;;2.97;82.09;100464.47;4961716;28;20355;-80
2022/12/12 05:05:31;;;;;;;17.10;12.57;;;;;;;3.05;82.44;100480.56;4956833;28;20479;-81
2022/12/12 05:08:15;;;;;;;16.42;13.43;;;;;;;2.72;82.72;100437.06;4954510;28;20053;-80
2022/12/12 05:10:45;;;;;;;17.92;14.02;;;;;;;3.08;82.52;100488.25;4964820;28;20170;-81
2022/12/12 05:13:17;;;;;;;15.48;12.60;;;;;;;2.84;82.36;100450.38;4951096;28;20175;-81
2022/12/12 05:15:45;;;;;;;16.98;13.95;;;;;;;3.03;82.24;100481.59;4935851;28;21011;-81
2022/12/12 05:18:19;;;;;;;16.92;13.68;;;;;;;3.00;82.25;100483.47;4932349;28;20063;-81
2022/12/12 05:20:46;;;;;;;16.23;12.23;;;;;;;2.78;82.39;100457.66;4932914;28;20057;-82
2022/12/12 05:23:15;;;;;;;16.33;12.90;;;;;;;3.06;81.93;100513.75;4932383;28;20054;-82
2022/12/12 05:25:42;;;;;;;16.02;12.57;;;;;;;3.09;82.09;100513.56;4932946;28;20076;-79
2022/12/12 05:28:08;;;;;;;16.23;12.23;;;;;;;3.09;82.07;100507.47;4938592;28;20053;-80
2022/12/12 05:30:38;;;;;;;13.93;10.77;;;;;;;2.81;82.26;100466.28;4959624;28;20457;-80
2022/12/12 05:33:05;;;;;;;16.52;12.23;;;;;;;2.82;82.30;100460.13;4959283;28;20515;-80
2022/12/12 05:35:32;;;;;;;16.33;12.52;;;;;;;3.15;82.02;100523.69;4952795;28;20073;-80
2022/12/12 05:38:02;;;;;;;17.50;11.87;;;;;;;3.18;82.15;100536.63;4953787;28;20061;-79
2022/12/12 05:40:29;;;;;;;14.88;12.32;;;;;;;2.96;81.86;100475.88;4947732;28;20193;-81
2022/12/12 05:43:00;;;;;;;16.45;12.50;;;;;;;3.17;81.95;100516.56;4929809;28;20050;-80
2022/12/12 05:45:30;;;;;;;16.20;12.52;;;;;;;3.28;82.03;100534.31;4933165;28;20119;-80
2022/12/12 05:47:57;;;;;;;15.63;12.85;;;;;;;3.35;82.30;100540.00;4950051;28;20061;-81
2022/12/12 05:50:23;;;;;;;15.27;12.45;;;;;;;3.01;81.94;100481.72;4932604;28;20128;-81
2022/12/12 05:52:50;;;;;;;14.65;12.38;;;;;;;3.11;80.93;100493.34;4935214;28;20631;-81
2022/12/12 05:55:17;;;;;;;16.90;12.93;;;;;;;3.33;80.72;100528.78;4927639;28;20054;-81
2022/12/12 05:57:45;;;;;;;19.80;13.52;;;;;;;3.21;81.24;100520.72;4934538;28;20512;-80
2022/12/12 06:00:12;;;;;;;15.25;12.57;;;;;;;3.20;81.05;100532.16;4949746;28;20475;-81
2022/12/12 06:02:42;;;;;;;15.85;12.65;;;;;;;2.41;80.82;100424.06;4933533;28;20046;-80
2022/12/12 06:05:09;;;;;;;18.30;12.98;;;;;;;3.20;81.62;100554.91;4937406;28;20090;-79
2022/12/12 06:07:36;;;;;;;14.63;12.60;;;;;;;2.24;81.30;100397.06;4942628;28;20053;-80
2022/12/12 06:10:09;;;;;;;18.20;13.65;;;;;;;3.20;82.42;100553.13;4959840;28;20571;-80
2022/12/12 06:12:37;;;;;;;15.63;13.25;;;;;;;3.06;82.07;100528.63;4937349;28;20144;-80
2022/12/12 06:15:05;;;;;;;14.02;12.00;;;;;;;3.27;82.26;100552.75;4938684;28;20204;-80
2022/12/12 06:17:31;;;;;;;16.63;12.18;;;;;;;3.30;82.37;100542.94;4935337;28;20077;-80
2022/12/12 06:20:01;;;;;;;13.57;11.93;;;;;;;3.25;82.37;100533.63;4939104;28;20579;-80
2022/12/12 06:22:28;;;;;;;14.40;11.90;;;;;;;3.34;81.67;100546.22;4940871;28;20083;-81
2022/12/12 06:25:02;;;;;;;17.73;11.98;;;;;;;2.90;81.68;100484.13;4927297;28;20053;-80
2022/12/12 06:27:28;;;;;;;14.82;11.50;;;;;;;3.24;82.06;100531.97;4961544;28;20050;-81
2022/12/12 06:29:55;;;;;;;14.10;11.63;;;;;;;3.36;81.62;100552.22;4951046;28;20498;-81
2022/12/12 06:32:22;;;;;;;12.77;10.63;;;;;;;3.21;81.26;100518.09;4980512;28;20101;-80
2022/12/12 06:35:03;;;;;;;15.05;11.27;;;;;;;3.50;80.91;100575.03;4950368;28;20231;-81
2022/12/12 06:37:40;;;;;;;12.55;10.32;;;;;;;3.44;80.48;100576.22;4948448;28;20048;-81
2022/12/12 06:40:07;;;;;;;13.77;10.98;;;;;;;3.19;80.45;100540.94;4958183;28;20038;-80
2022/12/12 06:42:37;;;;;;;15.27;11.98;;;;;;;2.92;81.04;100514.56;4947825;28;20477;-80
2022/12/12 06:45:13;;;;;;;15.40;11.77;;;;;;;2.25;81.43;100406.59;4953590;28;20052;-79
2022/12/12 06:47:46;;;;;;;15.40;10.77;;;;;;;2.99;80.65;100533.41;4983863;28;20403;-81
2022/12/12 06:50:16;;;;;;;15.40;11.48;;;;;;;3.34;80.54;100585.56;4967928;28;20054;-82
2022/12/12 06:52:49;;;;;;;15.38;11.48;;;;;;;3.35;80.57;100596.00;4961648;28;20049;-80
2022/12/12 06:55:18;;;;;;;15.60;12.27;;;;;;;3.12;80.06;100557.13;4959933;28;20420;-83
2022/12/12 06:57:45;;;;;;;17.30;11.98;;;;;;;3.39;81.22;100594.00;4959609;28;20095;-78
2022/12/12 07:00:16;;;;;;;14.25;12.73;;;;;;;3.36;81.03;100602.06;4937505;28;20042;-81
2022/12/12 07:02:43;;;;;;;16.88;12.27;;;;;;;3.05;80.54;100538.28;4940867;28;20062;-81
2022/12/12 07:05:10;;;;;;;14.17;11.30;;;;;;;3.16;80.76;100562.13;4943243;28;20132;-81
2022/12/12 07:07:37;;;;;;;13.85;11.68;;;;;;;3.41;80.46;100607.91;4957681;28;20054;-81
2022/12/12 07:10:05;;;;;;;12.88;10.85;;;;;;;2.94;80.24;100535.47;4955564;28;20053;-81
2022/12/12 07:12:31;;;;;;;14.10;10.63;;;;;;;3.48;78.60;100624.97;4954291;28;20294;-80
2022/12/12 07:14:58;;;;;;;14.48;11.40;;;;;;;3.01;79.48;100563.03;4956884;28;20597;-81
2022/12/12 07:17:25;;;;;;;15.25;12.20;;;;;;;3.26;80.11;100607.03;4956988;28;20085;-81
2022/12/12 07:19:52;;;;;;;15.40;10.40;;;;;;;2.86;79.71;100559.47;4955735;28;20073;-82
2022/12/12 07:22:18;;;;;;;13.55;11.20;;;;;;;3.30;80.04;100640.03;4958053;28;20049;-81
2022/12/12 07:24:45;;;;;;;11.35;10.15;;;;;;;3.22;79.87;100619.47;4978068;28;20069;-80
2022/12/12 07:27:13;;;;;;;13.98;10.88;;;;;;;3.21;79.94;100615.16;4962896;28;20050;-79
2022/12/12 07:29:47;;;;;;;13.25;11.45;;;;;;;3.28;80.22;100628.78;4980531;28;20819;-83
2022/12/12 07:32:17;;;;;;;14.75;11.05;;;;;;;3.27;80.40;100627.06;4965391;28;20053;-81
2022/12/12 07:34:46;;;;;;;13.18;10.60;;;;;;;3.33;80.14;100639.84;4978383;28;20092;-83
2022/12/12 07:37:13;;;;;;;16.70;12.27;;;;;;;3.42;80.53;100641.06;4958754;28;20049;-81
2022/12/12 07:39:39;;;;;;;16.92;10.43;;;;;;;2.83;80.26;100540.47;4959132;28;20353;-82
2022/12/12 07:42:06;;;;;;;14.30;10.55;;;;;;;3.42;80.09;100641.06;4953704;28;20077;-82
2022/12/12 07:44:34;;;;;;;18.73;11.45;;;;;;;3.41;80.47;100628.88;4936928;28;20058;-81
2022/12/12 07:47:01;;;;;;;12.52;10.50;;;;;;;3.42;80.41;100633.19;4956418;28;20223;-81
2022/12/12 07:49:28;;;;;;;12.23;10.10;;;;;;;3.09;80.18;100592.25;4939627;28;20956;-82
2022/12/12 07:52:14;;;;;;;13.02;10.77;;;;;;;3.53;79.57;100653.59;4937435;28;20058;-81
2022/12/12 07:54:46;;;;;;;59.38;52.75;;;;;;;3.42;79.30;100638.44;4940794;28;20056;-81
2022/12/12 07:57:13;;;;;;;18.15;12.68;;;;;;;3.56;79.38;100653.38;4938303;28;20603;-81
2022/12/12 07:59:42;;;;;;;16.80;11.88;;;;;;;3.55;79.66;100657.81;4956201;28;20054;-81
2022/12/12 08:02:10;;;;;;;17.00;12.90;;;;;;;3.60;79.41;100668.88;4975107;28;20072;-82
2022/12/12 08:04:36;;;;;;;15.63;11.90;;;;;;;3.60;79.61;100658.38;4958276;28;20050;-82
2022/12/12 08:07:03;;;;;;;17.00;14.02;;;;;;;3.57;80.05;100655.94;4958364;28;20064;-81
2022/12/12 08:09:35;;;;;;;14.90;12.10;;;;;;;3.66;80.44;100653.69;4960556;28;20460;-82
2022/12/12 08:12:11;;;;;;;16.25;13.30;;;;;;;3.79;80.34;100675.69;4979774;28;20057;-81
2022/12/12 08:14:49;;;;;;;13.95;12.13;;;;;;;3.83;80.37;100677.16;4966802;28;20046;-82
2022/12/12 08:17:15;;;;;;;17.05;12.45;;;;;;;3.86;80.41;100679.63;4962510;28;20139;-81
2022/12/12 08:19:42;;;;;;;15.70;12.23;;;;;;;3.40;80.18;100598.34;4969138;28;20598;-82
2022/12/12 08:22:09;;;;;;;14.70;12.30;;;;;;;3.73;79.47;100652.41;4963050;28;20351;-81
2022/12/12 08:24:35;;;;;;;19.65;12.57;;;;;;;4.00;79.43;100684.03;4956962;28;20045;-81
2022/12/12 08:27:02;;;;;;;16.00;12.88;;;;;;;3.90;79.88;100667.97;4956452;28;20111;-82
2022/12/12 08:29:29;;;;;;;17.58;12.35;;;;;;;3.90;80.13;100646.13;4956636;28;20474;-82
2022/12/12 08:31:56;;;;;;;20.23;14.00;;;;;;;3.88;79.29;100634.88;4956427;28;20046;-81
2022/12/12 08:34:23;;;;;;;23.33;14.70;;;;;;;4.11;79.24;100672.91;4956958;28;20275;-82
2022/12/12 08:36:51;;;;;;;19.90;15.23;;;;;;;4.21;78.82;100685.38;4956868;28;20073;-81
2022/12/12 08:39:18;;;;;;;23.10;15.55;;;;;;;4.10;79.32;100682.53;4957169;28;20168;-81
2022/12/12 08:41:49;;;;;;;24.15;16.23;;;;;;;4.03;79.59;100684.72;4952975;28;20054;-81
2022/12/12 08:44:18;;;;;;;20.15;15.98;;;;;;;4.07;79.54;100693.25;4953182;28;20254;-82
2022/12/12 08:46:46;;;;;;;30.35;17.17;;;;;;;3.98;79.83;100665.75;4954128;28;20629;-82
2022/12/12 08:49:12;;;;;;;26.40;17.20;;;;;;;4.22;79.33;100705.47;4952818;28;20638;-81
2022/12/12 08:51:40;;;;;;;29.55;19.75;;;;;;;4.21;79.32;100708.19;4937093;28;20326;-81
2022/12/12 08:54:09;;;;;;;28.73;19.25;;;;;;;4.17;79.17;100707.50;4938535;28;20765;-81
2022/12/12 08:56:36;;;;;;;33.85;23.08;;;;;;;4.21;78.98;100730.03;4958373;28;20304;-81
2022/12/12 08:59:03;;;;;;;42.95;26.77;;;;;;;3.71;78.29;100641.13;4955636;28;20160;-82
2022/12/12 09:01:30;;;;;;;40.92;25.17;;;;;;;3.88;78.47;100680.34;4960625;28;20652;-82
2022/12/12 09:03:57;;;;;;;40.22;24.90;;;;;;;4.17;77.57;100733.78;4960126;28;20467;-81
2022/12/12 09:06:25;;;;;;;35.60;23.70;;;;;;;4.15;77.62;100745.31;4960220;28;20054;-81
2022/12/12 09:08:53;;;;;;;34.88;22.88;;;;;;;3.99;77.07;100735.72;4960553;28;20139;-81
2022/12/12 09:11:20;;;;;;;40.97;24.73;;;;;;;3.89;77.96;100739.00;4977574;28;20551;-81
2022/12/12 09:13:46;;;;;;;40.83;23.90;;;;;;;3.92;78.38;100744.91;4960024;28;20097;-82
2022/12/12 09:16:13;;;;;;;38.05;24.33;;;;;;;3.74;77.04;100714.47;4960291;28;20085;-82
2022/12/12 09:18:43;;;;;;;42.75;23.10;;;;;;;3.89;77.41;100736.38;4959882;28;20085;-80
2022/12/12 09:21:15;;;;;;;37.95;25.38;;;;;;;3.96;76.88;100750.84;4960778;28;20076;-81
2022/12/12 09:23:42;;;;;;;41.72;25.15;;;;;;;3.90;77.70;100741.53;4959948;28;20053;-81
2022/12/12 09:26:09;;;;;;;34.55;24.10;;;;;;;3.68;78.22;100731.44;4960339;28;20049;-81
2022/12/12 09:28:36;;;;;;;45.53;24.88;;;;;;;3.42;78.58;100693.56;4961276;28;20046;-80
2022/12/12 09:31:08;;;;;;;36.75;23.35;;;;;;;3.78;78.88;100744.88;4960815;28;20080;-81
2022/12/12 09:33:35;;;;;;;37.03;24.33;;;;;;;3.43;78.17;100687.41;4961773;28;20097;-81
2022/12/12 09:36:06;;;;;;;36.03;23.88;;;;;;;3.49;78.78;100681.78;4960273;28;20380;-80
2022/12/12 09:38:33;;;;;;;36.85;23.48;;;;;;;3.92;77.95;100747.53;4963285;28;20046;-81
2022/12/12 09:41:13;;;;;;;41.20;24.63;;;;;;;3.57;78.66;100687.44;4959135;28;20637;-81
2022/12/12 09:43:50;;;;;;;34.05;22.60;;;;;;;3.92;78.61;100723.91;4959655;28;20053;-82
2022/12/12 09:46:29;;;;;;;31.90;21.80;;;;;;;3.93;78.26;100728.25;4977404;28;20137;-80
2022/12/12 09:49:03;;;;;;;36.10;22.77;;;;;;;4.03;78.42;100732.00;4960233;28;20474;-80
2022/12/12 09:51:30;;;;;;;31.80;21.30;;;;;;;3.92;78.45;100721.28;4960527;28;20060;-81
2022/12/12 09:53:59;;;;;;;31.75;21.10;;;;;;;4.06;78.91;100730.97;4959781;28;20644;-81
2022/12/12 09:57:04;;;;;;;35.83;22.63;;;;;;;3.93;78.90;100715.09;4959854;28;20060;-81
2022/12/12 09:59:54;;;;;;;36.00;22.08;;;;;;;4.14;78.32;100743.66;4959438;28;20058;-80
2022/12/12 10:02:37;;;;;;;34.58;22.17;;;;;;;4.14;77.28;100744.47;4977628;28;20141;-80
2022/12/12 10:05:12;;;;;;;33.50;21.55;;;;;;;3.81;77.25;100716.66;4958801;28;20050;-80
2022/12/12 10:08:01;;;;;;;29.58;21.35;;;;;;;3.89;77.19;100718.84;4977285;28;20100;-80
2022/12/12 10:10:35;;;;;;;29.45;22.13;;;;;;;3.88;78.06;100725.00;4977339;28;20050;-80
2022/12/12 10:13:05;;;;;;;32.30;21.50;;;;;;;3.89;78.31;100729.34;4977231;28;20621;-81
2022/12/12 10:15:40;;;;;;;30.27;21.17;;;;;;;3.77;77.74;100724.81;4977018;28;20575;-80
2022/12/12 10:18:14;;;;;;;34.03;22.15;;;;;;;2.68;78.82;100565.78;4976579;28;20113;-80
2022/12/12 10:20:50;;;;;;;40.07;25.70;;;;;;;3.62;79.38;100732.66;4959554;28;20054;-80
2022/12/12 10:23:25;;;;;;;37.28;24.58;;;;;;;3.58;79.29;100731.13;4977306;28;20116;-80
2022/12/12 10:25:56;;;;;;;42.22;26.15;;;;;;;3.56;79.86;100735.59;4959897;28;20562;-81
2022/12/12 10:28:26;;;;;;;38.87;26.90;;;;;;;3.63;79.74;100741.34;4958579;28;20272;-79
2022/12/12 10:31:00;;;;;;;36.78;24.67;;;;;;;3.61;78.93;100733.56;4945592;28;20077;-81
2022/12/12 10:33:55;;;;;;;38.05;22.67;;;;;;;3.66;78.37;100733.28;4975021;28;20160;-81
2022/12/12 10:36:55;;;;;;;45.60;27.60;;;;;;;3.71;78.88;100740.91;4958351;28;20081;-80
2022/12/12 10:39:43;;;;;;;51.10;30.65;;;;;;;3.48;79.76;100702.88;4959319;28;20131;-80
2022/12/12 10:42:18;;;;;;;47.20;27.17;;;;;;;3.49;79.34;100700.16;4957366;28;20413;-81
2022/12/12 10:45:16;;;;;;;45.45;28.70;;;;;;;3.66;78.81;100721.97;4960126;28;20481;-81
2022/12/12 10:47:44;;;;;;;47.37;27.30;;;;;;;3.48;78.01;100695.84;4958472;28;20072;-82
2022/12/12 10:50:29;;;;;;;55.07;29.67;;;;;;;3.42;77.86;100693.56;4959988;28;20767;-81
2022/12/12 10:52:56;;;;;;;52.20;29.30;;;;;;;3.34;78.05;100701.03;4959185;28;20053;-80
2022/12/12 10:55:43;;;;;;;55.20;30.80;;;;;;;3.43;78.07;100732.00;4959100;28;20606;-81
2022/12/12 10:58:10;;;;;;;59.93;30.27;;;;;;;3.22;78.27;100698.16;4959163;28;20456;-82
2022/12/12 11:00:40;;;;;;;64.73;33.43;;;;;;;3.38;78.88;100731.44;4959080;28;20054;-81
2022/12/12 11:03:20;;;;;;;67.20;34.43;;;;;;;3.00;79.33;100656.56;4957047;28;20412;-81
2022/12/12 11:05:48;;;;;;;64.53;33.80;;;;;;;3.12;79.99;100691.75;4958155;28;20657;-83
2022/12/12 11:08:28;;;;;;;67.23;35.90;;;;;;;3.41;80.03;100718.13;4977268;28;20313;-82
2022/12/12 11:11:02;;;;;;;72.13;36.75;;;;;;;3.35;79.14;100711.47;4958549;28;20102;-81
2022/12/12 11:13:31;;;;;;;70.33;37.00;;;;;;;3.17;79.98;100675.75;4958759;28;20490;-81
2022/12/12 11:15:59;;;;;;;69.28;37.38;;;;;;;3.32;80.42;100698.50;4958785;28;20042;-82
2022/12/12 11:18:29;;;;;;;71.57;37.60;;;;;;;3.15;80.09;100665.34;4959520;28;20057;-83
2022/12/12 11:21:12;;;;;;;73.27;39.37;;;;;;;3.49;80.45;100704.56;4959452;28;20082;-82
2022/12/12 11:23:46;;;;;;;81.03;41.03;;;;;;;2.73;80.23;100595.19;4958839;28;20054;-81
2022/12/12 11:26:16;;;;;;;79.63;40.53;;;;;;;3.26;80.62;100682.28;4960277;28;20057;-82
2022/12/12 11:28:50;;;;;;;87.18;39.88;;;;;;;3.38;80.81;100690.28;4965349;28;20690;-83
2022/12/12 11:31:23;;;;;;;77.10;40.10;;;;;;;3.51;79.92;100711.41;4942500;28;20417;-83
2022/12/12 11:33:52;;;;;;;77.10;40.43;;;;;;;3.66;80.63;100701.78;4980907;28;20045;-82
2022/12/12 11:36:27;;;;;;;83.00;40.97;;;;;;;3.55;80.02;100676.19;4960934;28;20340;-80
2022/12/12 11:38:58;;;;;;;85.75;39.00;;;;;;;3.50;79.89;100659.84;4959293;28;20081;-83
2022/12/12 11:41:24;;;;;;;84.15;39.17;;;;;;;3.66;80.50;100680.78;4959704;28;20085;-85
2022/12/12 11:43:56;;;;;;;69.32;35.80;;;;;;;3.27;80.12;100600.00;4959632;28;20573;-85
2022/12/12 11:46:27;;;;;;;76.97;37.40;;;;;;;3.84;79.46;100695.47;4960394;28;20050;-85
2022/12/12 11:48:58;;;;;;;78.47;38.97;;;;;;;3.84;79.01;100699.88;4979059;28;20239;-85
2022/12/12 11:51:35;;;;;;;71.88;36.78;;;;;;;3.78;79.60;100671.34;4960922;28;20053;-85
2022/12/12 11:54:10;;;;;;;76.32;38.35;;;;;;;3.84;77.99;100673.63;4960237;28;20049;-85
2022/12/12 11:56:49;;;;;;;75.40;37.70;;;;;;;3.87;78.60;100688.34;4960120;28;20131;-86
2022/12/12 11:59:28;;;;;;;79.40;37.85;;;;;;;3.79;78.84;100691.44;4960258;28;20066;-84
2022/12/12 12:02:10;;;;;;;70.80;36.35;;;;;;;3.78;78.70;100689.72;4968172;28;20073;-84
2022/12/12 12:05:02;;;;;;;71.63;35.33;;;;;;;2.45;78.78;100470.09;5002554;28;20056;-85